»·PEaware :: DCM717 KOTH-KSLC

DCM717 :: KOTH-KSLC

FLIGHT INFORMATION

Flight Status: Arrived
Operator: Unknown
More flights by this operator :: More flights under this callsign
Pilot: Ty S. (2873)
Aircraft: BOEING 737-300
(B733)
More flights by this aircraft type
Origin: KOTH North Bend Mun
United States
Destination: KSLC Salt Lake City Intl
United States
More flights between these airports :: More routes between these airports
Route: +OTH RBG LKV REO BYI SKEES4
File this flight plan on PilotEdge
Remarks:
Altitude:
(Current/Filed)
37,000ft
Speed:
(Current/Filed)
415kts
Departed: 02-Jun-17 06:39 PM
Arrived: 02-Jun-17 08:11 PM
Distance/Time
Traveled:
569nm/1:31
Distance/Time
To Go:
Arrived

Flight Plot

Page will automatically refresh every two minutes.

Flight plan parsing failed; only flown route is shown


Map Options




Map Legend


Flown Route
Filed Route
Departure Airport
Arrival Airport
Navaid (VOR, NDB)
Fix

Horizontal Profiles

Position Reports

Time Latitude Longitude Heading Altitude Ground
Speed
02-Jun-17 18:15 43.416851 -124.246522 239 11ft 0kts
02-Jun-17 18:16 43.416851 -124.246522 239 11ft 0kts
02-Jun-17 18:17 43.416851 -124.246522 239 11ft 0kts
02-Jun-17 18:18 43.416851 -124.246522 239 11ft 0kts
02-Jun-17 18:19 43.416851 -124.246522 239 11ft 0kts
02-Jun-17 18:20 43.416851 -124.246522 239 11ft 0kts
02-Jun-17 18:21 43.416851 -124.246522 239 11ft 0kts
02-Jun-17 18:22 43.416851 -124.246522 239 11ft 0kts
02-Jun-17 18:23 43.416851 -124.246522 239 11ft 0kts
02-Jun-17 18:24 43.416851 -124.246522 239 11ft 0kts
02-Jun-17 18:25 43.416851 -124.246522 239 11ft 0kts
02-Jun-17 18:26 43.416851 -124.246522 239 11ft 0kts
02-Jun-17 18:27 43.416851 -124.246522 239 11ft 0kts
02-Jun-17 18:28 43.416851 -124.246522 239 11ft 0kts
02-Jun-17 18:29 43.416851 -124.246522 239 11ft 0kts
02-Jun-17 18:30 43.416851 -124.246522 239 11ft 0kts
02-Jun-17 18:31 43.416998 -124.246174 239 11ft 0kts
02-Jun-17 18:32 43.416998 -124.246174 239 11ft 0kts
02-Jun-17 18:33 43.416998 -124.246174 239 11ft 0kts
02-Jun-17 18:34 43.417162 -124.246434 340 11ft 6kts
02-Jun-17 18:35 43.418720 -124.247791 240 11ft 11kts
02-Jun-17 18:36 43.416745 -124.252474 241 11ft 17kts
02-Jun-17 18:37 43.414319 -124.258531 241 11ft 14kts
02-Jun-17 18:38 43.413930 -124.259755 286 11ft 0kts
02-Jun-17 18:39 43.413930 -124.259755 286 11ft 0kts
02-Jun-17 18:40 43.414939 -124.260057 56 11ft 0kts
02-Jun-17 18:41 43.426299 -124.235008 34 1087ft 147kts
02-Jun-17 18:42 43.441391 -124.265493 233 4267ft 194kts
02-Jun-17 18:43 43.396585 -124.248300 96 4935ft 233kts
02-Jun-17 18:44 43.410977 -124.157945 104 5672ft 291kts
02-Jun-17 18:45 43.383177 -124.053786 114 10326ft 295kts
02-Jun-17 18:46 43.351522 -123.941227 114 13557ft 338kts
02-Jun-17 18:47 43.316574 -123.817764 115 17027ft 360kts
02-Jun-17 18:48 43.279018 -123.685877 116 20054ft 383kts
02-Jun-17 18:49 43.239092 -123.546454 116 22773ft 405kts
02-Jun-17 18:50 43.196776 -123.399548 117 25271ft 425kts
02-Jun-17 18:51 43.157506 -123.242360 113 27544ft 448kts
02-Jun-17 18:52 43.119751 -123.076878 113 29842ft 459kts
02-Jun-17 18:53 43.081710 -122.911736 113 32265ft 460kts
02-Jun-17 18:54 43.042806 -122.744088 113 34227ft 467kts
02-Jun-17 18:55 43.003644 -122.576478 113 36500ft 460kts
02-Jun-17 18:56 42.964212 -122.409162 112 37003ft 462kts
02-Jun-17 18:57 42.925718 -122.246617 113 37005ft 457kts
02-Jun-17 18:58 42.888271 -122.090432 113 37062ft 458kts
02-Jun-17 18:59 42.848615 -121.926463 113 37073ft 457kts
02-Jun-17 19:00 42.808894 -121.762623 113 37075ft 457kts
02-Jun-17 19:01 42.769391 -121.600785 113 37074ft 457kts
02-Jun-17 19:02 42.729076 -121.436915 113 37074ft 457kts
02-Jun-17 19:03 42.692667 -121.289636 113 37060ft 456kts
02-Jun-17 19:04 42.652007 -121.126323 113 37080ft 457kts
02-Jun-17 19:05 42.611114 -120.963391 112 37099ft 457kts
02-Jun-17 19:06 42.570006 -120.800740 112 37102ft 457kts
02-Jun-17 19:07 42.528679 -120.638341 112 37102ft 457kts
02-Jun-17 19:08 42.492763 -120.473715 90 37096ft 461kts
02-Jun-17 19:09 42.502564 -120.306094 87 37072ft 464kts
02-Jun-17 19:10 42.510679 -120.132720 87 37103ft 464kts
02-Jun-17 19:11 42.518556 -119.958466 87 37102ft 463kts
02-Jun-17 19:12 42.526171 -119.784416 87 37102ft 463kts
02-Jun-17 19:13 42.533525 -119.610327 87 37102ft 463kts
02-Jun-17 19:14 42.540619 -119.436299 87 37103ft 463kts
02-Jun-17 19:15 42.547396 -119.263207 88 37106ft 462kts
02-Jun-17 19:16 42.553957 -119.089078 88 37112ft 463kts
02-Jun-17 19:17 42.560252 -118.914992 87 37100ft 461kts
02-Jun-17 19:18 42.566227 -118.742605 86 37070ft 457kts
02-Jun-17 19:19 42.571935 -118.570470 86 37077ft 459kts
02-Jun-17 19:20 42.577408 -118.397570 86 37074ft 458kts
02-Jun-17 19:21 42.582094 -118.242153 87 37075ft 458kts
02-Jun-17 19:22 42.587065 -118.069452 87 37076ft 459kts
02-Jun-17 19:23 42.591771 -117.896981 87 37075ft 458kts
02-Jun-17 19:24 42.592718 -117.723944 88 37075ft 459kts
02-Jun-17 19:25 42.595037 -117.551321 88 37074ft 459kts
02-Jun-17 19:26 42.597131 -117.378583 88 37075ft 459kts
02-Jun-17 19:27 42.598944 -117.207401 89 37075ft 459kts
02-Jun-17 19:28 42.600518 -117.034694 89 37079ft 457kts
02-Jun-17 19:29 42.601816 -116.864403 89 37065ft 450kts
02-Jun-17 19:30 42.602854 -116.695636 89 37056ft 451kts
02-Jun-17 19:31 42.603647 -116.526144 89 37046ft 451kts
02-Jun-17 19:32 42.604186 -116.358536 89 37038ft 451kts
02-Jun-17 19:33 42.604478 -116.192566 90 37038ft 451kts
02-Jun-17 19:34 42.604531 -116.025226 90 37038ft 451kts
02-Jun-17 19:35 42.604337 -115.856783 90 37039ft 451kts
02-Jun-17 19:36 42.603911 -115.688406 89 37038ft 451kts
02-Jun-17 19:37 42.603224 -115.519416 90 37038ft 451kts
02-Jun-17 19:38 42.602286 -115.350455 90 37055ft 450kts
02-Jun-17 19:39 42.601115 -115.183023 90 37117ft 451kts
02-Jun-17 19:40 42.599680 -115.013655 90 37120ft 448kts
02-Jun-17 19:41 42.598015 -114.845301 89 37117ft 447kts
02-Jun-17 19:42 42.596108 -114.676659 89 37121ft 447kts
02-Jun-17 19:43 42.593960 -114.508551 89 37120ft 447kts
02-Jun-17 19:44 42.591617 -114.343825 90 37116ft 447kts
02-Jun-17 19:45 42.588975 -114.175156 90 37119ft 448kts
02-Jun-17 19:46 42.586090 -114.006894 90 37104ft 447kts
02-Jun-17 19:47 42.570223 -113.842340 126 37088ft 444kts
02-Jun-17 19:48 42.479754 -113.730463 138 37111ft 444kts
02-Jun-17 19:49 42.392230 -113.613695 137 37100ft 443kts
02-Jun-17 19:50 42.304525 -113.496781 137 37103ft 443kts
02-Jun-17 19:51 42.215966 -113.379908 137 36092ft 452kts
02-Jun-17 19:52 42.131282 -113.267694 138 34165ft 447kts
02-Jun-17 19:53 42.042757 -113.151145 138 32207ft 451kts
02-Jun-17 19:54 41.953565 -113.034068 138 30233ft 450kts
02-Jun-17 19:55 41.878699 -112.936551 137 28553ft 455kts
02-Jun-17 19:56 41.816642 -112.856187 137 27057ft 440kts
02-Jun-17 19:57 41.729261 -112.743159 136 24575ft 430kts
02-Jun-17 19:58 41.645702 -112.635870 136 22104ft 414kts
02-Jun-17 19:59 41.563900 -112.530638 136 19616ft 405kts
02-Jun-17 20:00 41.478036 -112.438530 137 17119ft 395kts
02-Jun-17 20:01 41.408422 -112.336105 132 14724ft 385kts
02-Jun-17 20:02 41.338962 -112.233160 132 13059ft 353kts
02-Jun-17 20:03 41.278789 -112.145081 132 12897ft 302kts
02-Jun-17 20:04 41.222164 -112.062679 132 11454ft 306kts
02-Jun-17 20:05 41.153642 -112.016712 175 11047ft 281kts
02-Jun-17 20:06 41.078541 -112.008408 176 9784ft 273kts
02-Jun-17 20:07 41.005921 -112.000136 175 8201ft 250kts
02-Jun-17 20:08 40.943882 -111.974126 155 7137ft 221kts
02-Jun-17 20:09 40.894091 -111.960134 180 6414ft 161kts
02-Jun-17 20:10 40.852547 -111.961734 182 5630ft 150kts
02-Jun-17 20:11 40.811560 -111.962173 180 4547ft 142kts
02-Jun-17 20:12 40.778938 -111.962090 180 4234ft 62kts
02-Jun-17 20:13 40.772859 -111.960778 45 4234ft 9kts
02-Jun-17 20:14 40.777262 -111.960596 23 4234ft 6kts
02-Jun-17 20:15 40.778726 -111.958650 4 4234ft 0kts
02-Jun-17 20:16 40.778726 -111.958650 4 4234ft 0kts

Navigation Log

Ident Type
Flight plan parsing failed, navigation log unavailable